Time;durP1;ratioP1;P1;durP2;ratioP2;P2;SDS_P1;SDS_P2;PMS_P1;PMS_P2;Temp;Humidity;BMP_temperature;BMP_pressure;BME280_temperature;BME280_humidity;BME280_pressure;Samples;Min_cycle;Max_cycle;Signal;HPM_P1;HPM_P2
2022/08/20 00:01:37;;;;;;;4.90;2.22;;;;;;;;;;5065869;28;20052;-71
2022/08/20 00:04:08;;;;;;;7.35;2.63;;;;;;;;;;5065566;28;20422;-72
2022/08/20 00:06:40;;;;;;;6.10;2.58;;;;;;;;;;5066021;28;20049;-70
2022/08/20 00:09:10;;;;;;;6.57;2.90;;;;;;;;;;5065997;28;20431;-72
2022/08/20 00:11:40;;;;;;;4.55;2.95;;;;;;;;;;5065321;28;20063;-71
2022/08/20 00:14:09;;;;;;;6.72;2.92;;;;;;;;;;5066231;28;20052;-71
2022/08/20 00:16:39;;;;;;;5.65;2.67;;;;;;;;;;5065404;28;20839;-72
2022/08/20 00:19:09;;;;;;;6.53;2.58;;;;;;;;;;5065478;28;20041;-70
2022/08/20 00:21:39;;;;;;;;;;;;;;;;;;5065995;28;20048;-70
2022/08/20 00:24:09;;;;;;;0.95;0.90;;;;;;;;;;5065351;28;19924;-70
2022/08/20 00:26:39;;;;;;;2.92;1.42;;;;;;;;;;5068902;28;20045;-71
2022/08/20 00:29:20;;;;;;;8.98;2.40;;;;;;;;;;5069128;28;20051;-72
2022/08/20 00:31:50;;;;;;;3.47;1.95;;;;;;;;;;5069253;28;20059;-72
2022/08/20 00:34:20;;;;;;;3.40;2.03;;;;;;;;;;5069020;28;20064;-71
2022/08/20 00:36:50;;;;;;;4.43;1.65;;;;;;;;;;5067650;28;20052;-71
2022/08/20 00:39:19;;;;;;;4.78;1.10;;;;;;;;;;5069849;28;20563;-72
2022/08/20 00:41:50;;;;;;;4.05;1.08;;;;;;;;;;5067132;28;20052;-71
2022/08/20 00:44:22;;;;;;;4.45;2.95;;;;;;;;;;5069403;28;20517;-72
2022/08/20 00:46:53;;;;;;;11.65;4.18;;;;;;;;;;5068917;28;20063;-71
2022/08/20 00:49:27;;;;;;;11.80;4.20;;;;;;;;;;5068434;28;20115;-72
2022/08/20 00:52:06;;;;;;;6.60;4.63;;;;;;;;;;5069040;28;20047;-71
2022/08/20 00:54:46;;;;;;;6.70;3.28;;;;;;;;;;5068793;28;20055;-72
2022/08/20 00:57:28;;;;;;;10.40;3.08;;;;;;;;;;5067936;28;20699;-72
2022/08/20 01:00:26;;;;;;;4.13;2.90;;;;;;;;;;5067951;28;20045;-72
2022/08/20 01:02:59;;;;;;;5.88;4.22;;;;;;;;;;5068690;28;20054;-71
2022/08/20 01:05:30;;;;;;;4.57;3.47;;;;;;;;;;5066730;28;20041;-71
2022/08/20 01:08:03;;;;;;;9.10;2.80;;;;;;;;;;5066970;28;20056;-72
2022/08/20 01:10:40;;;;;;;10.70;3.03;;;;;;;;;;5067181;28;20459;-71
2022/08/20 01:13:37;;;;;;;5.45;2.38;;;;;;;;;;5065998;28;20373;-71
2022/08/20 01:16:25;;;;;;;4.82;2.28;;;;;;;;;;5066997;28;20063;-72
2022/08/20 01:19:09;;;;;;;3.67;1.55;;;;;;;;;;5068199;28;20525;-71
2022/08/20 01:23:25;;;;;;;2.65;1.00;;;;;;;;;;5068242;28;20407;-71
2022/08/20 01:26:23;;;;;;;1.50;0.77;;;;;;;;;;5068493;28;20052;-70
2022/08/20 01:29:23;;;;;;;7.03;0.93;;;;;;;;;;4972026;28;20410;-71
2022/08/20 01:32:09;;;;;;;2.45;1.48;;;;;;;;;;4986686;28;20046;-71
2022/08/20 01:35:55;;;;;;;5.07;1.25;;;;;;;;;;5066615;28;20060;-71
2022/08/20 01:39:05;;;;;;;7.70;2.15;;;;;;;;;;5066233;28;20052;-72
2022/08/20 01:41:39;;;;;;;3.35;1.65;;;;;;;;;;5067899;28;20040;-71
2022/08/20 01:44:30;;;;;;;1.67;1.10;;;;;;;;;;5065596;28;20052;-71
2022/08/20 01:50:43;;;;;;;6.15;2.38;;;;;;;;;;5062329;28;20060;-71
2022/08/20 01:53:32;;;;;;;13.35;3.78;;;;;;;;;;5066753;28;20099;-71
2022/08/20 01:57:14;;;;;;;3.63;1.55;;;;;;;;;;5066963;28;20056;-71
2022/08/20 02:03:36;;;;;;;7.30;1.90;;;;;;;;;;5066935;28;20051;-71
2022/08/20 02:06:47;;;;;;;3.08;1.77;;;;;;;;;;5004709;28;20565;-71
2022/08/20 02:09:52;;;;;;;4.55;2.33;;;;;;;;;;5008271;28;20513;-70
2022/08/20 02:15:34;;;;;;;4.55;1.65;;;;;;;;;;5005173;28;20065;-71
2022/08/20 02:18:14;;;;;;;4.55;1.30;;;;;;;;;;5005011;28;20092;-71
2022/08/20 02:20:45;;;;;;;4.68;1.38;;;;;;;;;;5004914;28;20066;-71
2022/08/20 02:23:15;;;;;;;3.00;1.60;;;;;;;;;;5004250;28;20054;-71
2022/08/20 02:25:47;;;;;;;2.53;1.38;;;;;;;;;;5012480;28;20057;-70
2022/08/20 02:28:19;;;;;;;1.60;1.20;;;;;;;;;;5044411;28;20052;-71
2022/08/20 02:30:54;;;;;;;4.43;1.40;;;;;;;;;;5044372;28;20040;-71
2022/08/20 02:33:24;;;;;;;6.07;1.10;;;;;;;;;;5027480;28;20414;-70
2022/08/20 02:35:55;;;;;;;3.05;0.70;;;;;;;;;;5043899;28;20057;-71
2022/08/20 02:38:25;;;;;;;1.30;0.65;;;;;;;;;;5063832;28;20063;-71
2022/08/20 02:40:55;;;;;;;2.53;0.80;;;;;;;;;;5066770;28;20055;-70
2022/08/20 02:43:24;;;;;;;1.33;0.60;;;;;;;;;;5066012;28;20044;-71
2022/08/20 02:45:54;;;;;;;1.95;0.73;;;;;;;;;;5066295;28;20052;-71
2022/08/20 02:48:25;;;;;;;1.13;0.70;;;;;;;;;;5065670;28;20500;-70
2022/08/20 02:51:03;;;;;;;2.35;0.60;;;;;;;;;;5066845;28;20391;-70
2022/08/20 02:53:40;;;;;;;1.13;0.70;;;;;;;;;;5067083;28;20041;-71
2022/08/20 02:56:10;;;;;;;;;;;;;;;;;;5067451;28;20119;-71
2022/08/20 02:58:40;;;;;;;4.30;0.70;;;;;;;;;;5066572;28;20347;-71
2022/08/20 03:01:13;;;;;;;1.13;0.63;;;;;;;;;;5066265;28;20044;-71
2022/08/20 03:03:44;;;;;;;1.40;0.60;;;;;;;;;;5066336;28;20048;-71
2022/08/20 03:06:15;;;;;;;1.13;0.50;;;;;;;;;;5066377;28;20525;-71
2022/08/20 03:08:45;;;;;;;1.08;0.40;;;;;;;;;;5066523;28;20070;-71
2022/08/20 03:11:15;;;;;;;3.15;0.50;;;;;;;;;;5066515;28;20052;-70
2022/08/20 03:13:44;;;;;;;;;;;;;;;;;;5067479;28;20082;-71
2022/08/20 03:16:14;;;;;;;0.75;0.40;;;;;;;;;;5066449;28;19920;-71
2022/08/20 03:18:46;;;;;;;4.13;0.63;;;;;;;;;;5066673;28;20056;-69
2022/08/20 03:21:19;;;;;;;3.80;0.73;;;;;;;;;;5066416;28;20064;-71
2022/08/20 03:23:49;;;;;;;4.65;0.88;;;;;;;;;;5066965;28;20040;-70
2022/08/20 03:26:19;;;;;;;0.40;0.40;;;;;;;;;;5066342;28;20049;-70
2022/08/20 03:28:49;;;;;;;3.90;0.52;;;;;;;;;;5066362;28;20036;-70
2022/08/20 03:31:19;;;;;;;2.58;0.45;;;;;;;;;;5066353;28;20041;-71
2022/08/20 03:33:49;;;;;;;1.85;0.50;;;;;;;;;;5066351;28;20063;-70
2022/08/20 03:36:23;;;;;;;0.77;0.57;;;;;;;;;;5066883;28;20414;-71
2022/08/20 03:38:58;;;;;;;1.33;0.80;;;;;;;;;;5064925;28;20044;-70
2022/08/20 03:41:30;;;;;;;0.55;0.55;;;;;;;;;;5066035;28;20612;-71
2022/08/20 03:44:00;;;;;;;0.60;0.50;;;;;;;;;;5066161;28;20055;-71
2022/08/20 03:46:30;;;;;;;2.75;0.55;;;;;;;;;;5064628;28;20052;-70
2022/08/20 03:49:00;;;;;;;0.82;0.50;;;;;;;;;;5065687;28;20055;-70
2022/08/20 03:51:31;;;;;;;1.52;0.43;;;;;;;;;;5066537;28;20546;-70
2022/08/20 03:54:21;;;;;;;0.95;0.47;;;;;;;;;;5066546;28;20048;-70
2022/08/20 03:56:55;;;;;;;0.88;0.35;;;;;;;;;;5065987;28;20060;-70
2022/08/20 03:59:26;;;;;;;2.20;0.50;;;;;;;;;;5067552;28;20056;-70
2022/08/20 04:01:55;;;;;;;10.18;0.70;;;;;;;;;;5070131;28;20056;-71
2022/08/20 04:04:26;;;;;;;1.95;0.70;;;;;;;;;;5070218;28;20410;-70
2022/08/20 04:06:55;;;;;;;0.40;0.40;;;;;;;;;;5069775;28;20491;-71
2022/08/20 04:09:25;;;;;;;1.92;0.60;;;;;;;;;;5069313;28;20044;-71
2022/08/20 04:11:59;;;;;;;2.90;0.43;;;;;;;;;;5069320;28;20045;-73
2022/08/20 04:14:29;;;;;;;2.40;0.40;;;;;;;;;;5068171;28;20445;-71
2022/08/20 04:17:05;;;;;;;1.45;0.85;;;;;;;;;;5070307;28;20056;-70
2022/08/20 04:19:38;;;;;;;5.32;0.45;;;;;;;;;;5069628;28;20036;-71
2022/08/20 04:22:08;;;;;;;0.98;0.60;;;;;;;;;;5069376;28;20047;-71
2022/08/20 04:24:38;;;;;;;0.73;0.28;;;;;;;;;;5069016;28;20052;-71
2022/08/20 04:27:08;;;;;;;1.27;0.52;;;;;;;;;;5069435;28;20049;-71
2022/08/20 04:29:41;;;;;;;1.92;0.40;;;;;;;;;;5069783;28;20045;-72
2022/08/20 04:32:12;;;;;;;3.33;0.60;;;;;;;;;;5069495;28;20383;-71
2022/08/20 04:34:46;;;;;;;4.32;0.55;;;;;;;;;;5069026;28;20052;-71
2022/08/20 04:37:20;;;;;;;1.02;0.50;;;;;;;;;;5068987;28;20040;-71
2022/08/20 04:42:41;;;;;;;0.82;0.68;;;;;;;;;;5039042;28;20056;-70
2022/08/20 04:45:10;;;;;;;;;;;;;;;;;;5069731;28;20041;-70
2022/08/20 04:47:40;;;;;;;1.08;0.28;;;;;;;;;;5069335;28;19947;-70
2022/08/20 04:50:12;;;;;;;1.13;0.25;;;;;;;;;;5068739;28;20044;-70
2022/08/20 04:52:42;;;;;;;0.47;0.20;;;;;;;;;;5068748;28;20032;-71
2022/08/20 04:55:12;;;;;;;0.73;0.22;;;;;;;;;;5068337;28;20045;-71
2022/08/20 04:57:43;;;;;;;1.85;0.63;;;;;;;;;;5069480;28;20495;-71
2022/08/20 05:00:16;;;;;;;4.20;0.50;;;;;;;;;;5068625;28;20040;-71
2022/08/20 05:02:46;;;;;;;1.52;0.50;;;;;;;;;;5068699;28;20052;-72
2022/08/20 05:05:16;;;;;;;2.22;0.57;;;;;;;;;;5068455;28;20045;-72
2022/08/20 05:07:45;;;;;;;3.65;0.60;;;;;;;;;;5068966;28;20728;-71
2022/08/20 05:10:18;;;;;;;0.63;0.30;;;;;;;;;;5067766;28;20039;-71
2022/08/20 05:12:48;;;;;;;0.93;0.50;;;;;;;;;;5068653;28;20063;-72
2022/08/20 05:15:25;;;;;;;;;;;;;;;;;;5068582;28;20063;-71
2022/08/20 05:17:59;;;;;;;2.53;0.68;;;;;;;;;;5068366;28;19924;-71
2022/08/20 05:20:30;;;;;;;1.63;0.60;;;;;;;;;;5068146;28;20048;-72
2022/08/20 05:23:02;;;;;;;1.13;0.32;;;;;;;;;;5067723;28;20048;-71
2022/08/20 05:25:33;;;;;;;0.80;0.43;;;;;;;;;;5066939;28;20048;-71
2022/08/20 05:28:08;;;;;;;2.38;0.70;;;;;;;;;;5068437;28;20048;-72
2022/08/20 05:30:41;;;;;;;1.08;0.60;;;;;;;;;;5068164;28;20043;-72
2022/08/20 05:33:18;;;;;;;0.90;0.30;;;;;;;;;;5068348;28;20037;-71
2022/08/20 05:35:51;;;;;;;3.47;0.50;;;;;;;;;;5067752;28;20784;-71
2022/08/20 05:38:25;;;;;;;1.20;0.68;;;;;;;;;;5068601;28;20104;-71
2022/08/20 05:40:55;;;;;;;1.85;0.75;;;;;;;;;;5068070;28;20048;-72
2022/08/20 05:43:25;;;;;;;3.05;0.70;;;;;;;;;;5068416;28;20040;-71
2022/08/20 05:45:57;;;;;;;2.38;0.80;;;;;;;;;;5068093;28;20403;-71
2022/08/20 05:48:28;;;;;;;0.57;0.43;;;;;;;;;;5067698;28;20043;-70
2022/08/20 05:50:59;;;;;;;0.88;0.70;;;;;;;;;;5068050;28;20059;-71
2022/08/20 05:53:29;;;;;;;3.88;0.90;;;;;;;;;;5067897;28;20041;-70
2022/08/20 05:56:00;;;;;;;1.88;0.60;;;;;;;;;;5067369;28;20053;-71
2022/08/20 05:58:31;;;;;;;1.02;0.22;;;;;;;;;;5065195;28;20060;-71
2022/08/20 06:01:01;;;;;;;0.73;0.60;;;;;;;;;;5067413;28;20371;-71
2022/08/20 06:06:19;;;;;;;1.30;0.70;;;;;;;;;;5067738;28;20537;-71
2022/08/20 06:09:10;;;;;;;2.13;0.93;;;;;;;;;;5067495;28;20048;-71
2022/08/20 06:11:40;;;;;;;6.97;1.00;;;;;;;;;;5066283;28;20048;-71
2022/08/20 06:14:09;;;;;;;1.42;0.90;;;;;;;;;;5065246;28;20048;-71
2022/08/20 06:16:39;;;;;;;3.08;0.80;;;;;;;;;;5066989;28;20048;-71
2022/08/20 06:19:26;;;;;;;2.53;0.90;;;;;;;;;;5067288;28;20041;-72
2022/08/20 06:22:01;;;;;;;1.60;0.60;;;;;;;;;;5066271;28;20388;-70
2022/08/20 06:24:48;;;;;;;1.17;0.90;;;;;;;;;;5066590;28;20044;-70
2022/08/20 06:27:18;;;;;;;1.38;0.57;;;;;;;;;;5067321;28;20052;-70
2022/08/20 06:29:50;;;;;;;1.85;1.20;;;;;;;;;;5067107;28;20059;-70
2022/08/20 06:32:23;;;;;;;4.03;0.70;;;;;;;;;;5067337;28;20044;-71
2022/08/20 06:35:07;;;;;;;0.52;0.43;;;;;;;;;;5067098;28;20059;-71
2022/08/20 06:37:38;;;;;;;2.83;0.63;;;;;;;;;;5066663;28;20048;-70
2022/08/20 06:40:18;;;;;;;2.55;0.98;;;;;;;;;;5065280;28;20044;-71
2022/08/20 06:42:50;;;;;;;3.65;0.90;;;;;;;;;;5066838;28;20040;-71
2022/08/20 06:45:24;;;;;;;1.45;0.73;;;;;;;;;;5066772;28;20051;-70
2022/08/20 06:47:57;;;;;;;3.72;0.88;;;;;;;;;;5066512;28;20055;-71
2022/08/20 06:50:40;;;;;;;1.73;0.75;;;;;;;;;;5066676;28;20411;-70
2022/08/20 06:53:18;;;;;;;1.38;0.95;;;;;;;;;;5066500;28;20044;-71
2022/08/20 06:55:54;;;;;;;0.63;0.50;;;;;;;;;;5066509;28;20142;-71
2022/08/20 06:58:25;;;;;;;1.73;0.80;;;;;;;;;;5066913;28;20115;-70
2022/08/20 07:01:08;;;;;;;1.30;0.90;;;;;;;;;;5067118;28;20045;-71
2022/08/20 07:03:42;;;;;;;2.60;1.00;;;;;;;;;;5066600;28;20055;-70
2022/08/20 07:06:24;;;;;;;3.72;1.23;;;;;;;;;;5066596;28;20036;-70
2022/08/20 07:08:55;;;;;;;1.25;1.10;;;;;;;;;;5067261;28;20428;-71
2022/08/20 07:11:25;;;;;;;1.52;0.90;;;;;;;;;;5066542;28;20048;-70
2022/08/20 07:13:57;;;;;;;1.73;0.95;;;;;;;;;;5066615;28;20049;-71
2022/08/20 07:16:27;;;;;;;4.93;1.25;;;;;;;;;;5066887;28;20421;-71
2022/08/20 07:18:57;;;;;;;2.15;1.23;;;;;;;;;;5066494;28;20052;-70
2022/08/20 07:21:29;;;;;;;5.78;1.17;;;;;;;;;;5066379;28;20052;-69
2022/08/20 07:23:59;;;;;;;2.20;1.35;;;;;;;;;;5066339;28;20048;-71
2022/08/20 07:26:29;;;;;;;2.08;1.30;;;;;;;;;;5066882;28;20053;-71
2022/08/20 07:28:59;;;;;;;2.45;1.48;;;;;;;;;;5066161;28;20123;-71
2022/08/20 07:34:17;;;;;;;;;;;;;;;;;;5068701;28;20076;-70
2022/08/20 07:36:47;;;;;;;3.25;1.67;;;;;;;;;;5070592;28;20395;-70
2022/08/20 07:39:17;;;;;;;2.60;1.00;;;;;;;;;;5070610;28;20540;-71
2022/08/20 07:42:01;;;;;;;1.67;1.00;;;;;;;;;;5070109;28;20582;-71
2022/08/20 07:44:31;;;;;;;2.75;1.35;;;;;;;;;;5069464;28;20060;-70
2022/08/20 07:47:04;;;;;;;1.85;1.40;;;;;;;;;;5069718;28;20040;-69
2022/08/20 07:49:37;;;;;;;2.83;1.20;;;;;;;;;;5070571;28;20067;-70
2022/08/20 07:52:08;;;;;;;2.30;1.25;;;;;;;;;;5070129;28;20362;-69
2022/08/20 07:54:38;;;;;;;4.07;1.20;;;;;;;;;;5069810;28;20503;-69
2022/08/20 07:57:10;;;;;;;1.35;1.00;;;;;;;;;;5069635;28;20060;-70
2022/08/20 07:59:40;;;;;;;4.35;1.63;;;;;;;;;;5069849;28;20067;-70
2022/08/20 08:02:09;;;;;;;2.05;1.02;;;;;;;;;;5070227;28;20060;-70
2022/08/20 08:04:39;;;;;;;;;;;;;;;;;;5070181;28;20052;-69
2022/08/20 08:07:09;;;;;;;1.13;0.93;;;;;;;;;;5069583;28;19925;-70
2022/08/20 08:09:39;;;;;;;4.70;1.50;;;;;;;;;;5068376;28;20051;-70
2022/08/20 08:12:11;;;;;;;1.25;0.90;;;;;;;;;;5068688;28;20059;-69
2022/08/20 08:14:44;;;;;;;5.90;1.15;;;;;;;;;;5069400;28;20138;-69
2022/08/20 08:17:17;;;;;;;2.35;1.38;;;;;;;;;;5069433;28;20044;-69
2022/08/20 08:19:49;;;;;;;1.80;0.70;;;;;;;;;;5069587;28;20049;-69
2022/08/20 08:22:20;;;;;;;2.50;1.13;;;;;;;;;;5069594;28;20407;-70
2022/08/20 08:24:50;;;;;;;2.58;0.95;;;;;;;;;;5069156;28;20430;-69
2022/08/20 08:27:25;;;;;;;3.67;1.17;;;;;;;;;;5069455;28;20395;-70
2022/08/20 08:30:00;;;;;;;1.35;0.82;;;;;;;;;;5069216;28;20044;-69
2022/08/20 08:32:31;;;;;;;1.45;1.17;;;;;;;;;;5069234;28;20064;-71
2022/08/20 08:35:06;;;;;;;1.40;1.10;;;;;;;;;;5069041;28;20135;-70
2022/08/20 08:37:37;;;;;;;1.67;1.00;;;;;;;;;;5068674;28;20533;-71
2022/08/20 08:40:07;;;;;;;3.22;1.08;;;;;;;;;;5069154;28;20491;-70
2022/08/20 08:42:47;;;;;;;1.02;0.85;;;;;;;;;;5068953;28;20048;-70
2022/08/20 08:45:18;;;;;;;1.45;1.10;;;;;;;;;;5068545;28;20111;-70
2022/08/20 08:47:48;;;;;;;2.40;0.85;;;;;;;;;;5068952;28;20048;-70
2022/08/20 08:50:25;;;;;;;1.40;1.02;;;;;;;;;;5069228;28;20504;-70
2022/08/20 08:53:32;;;;;;;3.10;1.98;;;;;;;;;;5068601;28;20479;-70
2022/08/20 08:56:06;;;;;;;2.97;1.73;;;;;;;;;;5069016;28;20535;-70
2022/08/20 08:58:37;;;;;;;3.08;2.03;;;;;;;;;;5069068;28;20055;-70
2022/08/20 09:01:20;;;;;;;4.45;2.45;;;;;;;;;;5068458;28;20392;-70
2022/08/20 09:04:16;;;;;;;3.40;2.05;;;;;;;;;;5068706;28;20048;-70
2022/08/20 09:06:54;;;;;;;4.05;2.50;;;;;;;;;;5068453;28;20056;-69
2022/08/20 09:09:28;;;;;;;2.88;1.75;;;;;;;;;;5068685;28;20399;-69
2022/08/20 09:12:14;;;;;;;3.22;1.70;;;;;;;;;;5068647;28;20040;-71
2022/08/20 09:14:46;;;;;;;4.65;1.50;;;;;;;;;;5066337;28;20055;-73
2022/08/20 09:17:18;;;;;;;6.43;1.88;;;;;;;;;;5068711;28;20047;-69
2022/08/20 09:19:50;;;;;;;4.10;1.48;;;;;;;;;;5068356;28;20052;-70
2022/08/20 09:22:24;;;;;;;3.25;2.08;;;;;;;;;;5068633;28;20051;-70
2022/08/20 09:24:55;;;;;;;2.25;1.70;;;;;;;;;;5068361;28;20051;-69
2022/08/20 09:27:24;;;;;;;2.60;1.65;;;;;;;;;;5068355;28;20924;-69
2022/08/20 09:29:54;;;;;;;3.25;1.70;;;;;;;;;;5068829;28;20037;-70
2022/08/20 09:32:24;;;;;;;2.67;1.65;;;;;;;;;;5067883;28;20495;-69
2022/08/20 09:34:55;;;;;;;;;;;;;;;;;;5068774;28;20051;-71
2022/08/20 09:37:27;;;;;;;1.67;1.42;;;;;;;;;;5067866;28;19924;-70
2022/08/20 09:40:07;;;;;;;1.73;1.30;;;;;;;;;;5068219;28;20057;-69
2022/08/20 09:42:39;;;;;;;3.95;1.77;;;;;;;;;;5068266;28;20044;-69
2022/08/20 09:45:11;;;;;;;5.18;1.75;;;;;;;;;;5067089;28;20049;-70
2022/08/20 09:47:42;;;;;;;4.28;1.60;;;;;;;;;;5067995;28;20048;-70
2022/08/20 09:50:27;;;;;;;2.38;1.48;;;;;;;;;;5067660;28;20049;-69
2022/08/20 09:53:00;;;;;;;2.00;1.40;;;;;;;;;;5067581;28;20044;-71
2022/08/20 09:55:44;;;;;;;3.45;1.48;;;;;;;;;;5067627;28;20049;-70
2022/08/20 09:58:37;;;;;;;2.05;1.45;;;;;;;;;;5067675;28;20056;-69
2022/08/20 10:01:13;;;;;;;1.67;1.08;;;;;;;;;;5066856;28;20119;-70
2022/08/20 10:03:47;;;;;;;1.38;1.00;;;;;;;;;;5065871;28;20521;-70
2022/08/20 10:06:19;;;;;;;4.75;1.40;;;;;;;;;;5067126;28;20055;-70
2022/08/20 10:08:49;;;;;;;4.32;1.50;;;;;;;;;;5067555;28;20483;-69
2022/08/20 10:11:19;;;;;;;2.85;1.38;;;;;;;;;;5067651;28;20040;-69
2022/08/20 10:13:49;;;;;;;4.60;1.10;;;;;;;;;;5067112;28;20047;-70
2022/08/20 10:16:19;;;;;;;2.00;1.30;;;;;;;;;;5066896;28;20053;-70
2022/08/20 10:18:49;;;;;;;1.63;1.23;;;;;;;;;;5067069;28;20075;-70
2022/08/20 10:21:19;;;;;;;1.80;1.40;;;;;;;;;;5067451;28;20053;-70
2022/08/20 10:23:49;;;;;;;2.55;1.80;;;;;;;;;;5066646;28;20075;-71
2022/08/20 10:26:19;;;;;;;6.72;2.25;;;;;;;;;;5067505;28;20554;-71
2022/08/20 10:28:49;;;;;;;4.63;1.77;;;;;;;;;;5067313;28;20064;-71
2022/08/20 10:31:19;;;;;;;6.80;1.70;;;;;;;;;;5066908;28;20494;-71
2022/08/20 10:33:49;;;;;;;;;;;;;;;;;;5065303;28;20415;-72
2022/08/20 10:36:18;;;;;;;3.90;2.05;;;;;;;;;;5065969;28;19935;-73
2022/08/20 10:38:48;;;;;;;5.20;2.03;;;;;;;;;;5066434;28;20049;-71
2022/08/20 10:41:20;;;;;;;6.10;2.60;;;;;;;;;;5065154;28;20376;-71
2022/08/20 10:43:50;;;;;;;4.03;2.40;;;;;;;;;;5066784;28;20048;-71
2022/08/20 10:46:20;;;;;;;4.97;2.33;;;;;;;;;;5066769;28;20055;-71
2022/08/20 10:48:49;;;;;;;8.98;4.45;;;;;;;;;;5065138;28;20541;-72
2022/08/20 10:51:19;;;;;;;4.75;2.28;;;;;;;;;;5065431;28;20056;-70
2022/08/20 10:54:00;;;;;;;8.73;2.40;;;;;;;;;;5065209;28;20064;-71
2022/08/20 10:56:35;;;;;;;3.22;2.30;;;;;;;;;;5064737;28;20060;-76
2022/08/20 10:59:05;;;;;;;4.53;2.22;;;;;;;;;;5066116;28;20052;-72
2022/08/20 11:01:35;;;;;;;5.35;2.90;;;;;;;;;;5066123;28;20052;-71
2022/08/20 11:04:05;;;;;;;;;;;;;;;;;;5067337;28;20045;-71
2022/08/20 11:06:34;;;;;;;11.63;2.95;;;;;;;;;;5066927;28;19932;-71
2022/08/20 11:09:04;;;;;;;5.55;2.72;;;;;;;;;;5066027;28;20071;-72
2022/08/20 11:11:37;;;;;;;4.10;2.72;;;;;;;;;;5065771;28;20045;-72
2022/08/20 11:14:07;;;;;;;39.75;10.68;;;;;;;;;;5066288;28;20151;-72
2022/08/20 11:16:37;;;;;;;5.35;2.70;;;;;;;;;;5064971;28;21170;-72
2022/08/20 11:19:06;;;;;;;8.50;2.47;;;;;;;;;;5066313;28;20717;-72
2022/08/20 11:21:36;;;;;;;4.00;1.88;;;;;;;;;;5066338;28;20040;-74
2022/08/20 11:24:06;;;;;;;9.27;2.85;;;;;;;;;;5065385;28;20056;-72
2022/08/20 11:26:36;;;;;;;3.63;1.83;;;;;;;;;;5064756;28;20067;-72
2022/08/20 11:29:05;;;;;;;;;;;;;;;;;;5066960;28;20151;-72
2022/08/20 11:31:35;;;;;;;5.25;2.35;;;;;;;;;;5066979;28;19924;-72
2022/08/20 11:34:04;;;;;;;;;;;;;;;;;;5066839;28;20044;-73
2022/08/20 11:36:40;;;;;;;2.10;1.60;;;;;;;;;;5066549;28;19931;-72
2022/08/20 11:39:10;;;;;;;4.45;1.70;;;;;;;;;;5065772;28;20040;-72
2022/08/20 11:41:40;;;;;;;3.72;1.73;;;;;;;;;;5064242;28;20048;-72
2022/08/20 11:44:15;;;;;;;6.72;1.92;;;;;;;;;;5066186;28;20055;-72
2022/08/20 11:46:49;;;;;;;3.97;1.92;;;;;;;;;;5066686;28;20040;-72
2022/08/20 11:49:19;;;;;;;4.20;2.05;;;;;;;;;;5066386;28;20044;-72
2022/08/20 11:51:49;;;;;;;2.58;1.67;;;;;;;;;;5065838;28;20071;-71
2022/08/20 11:54:18;;;;;;;5.20;1.50;;;;;;;;;;5066249;28;20047;-73
2022/08/20 11:56:49;;;;;;;3.17;1.90;;;;;;;;;;5066210;28;20045;-72
2022/08/20 11:59:19;;;;;;;2.83;1.70;;;;;;;;;;5065785;28;20047;-74
2022/08/20 12:01:49;;;;;;;3.30;1.80;;;;;;;;;;5066331;28;20057;-73
2022/08/20 12:04:31;;;;;;;4.45;2.03;;;;;;;;;;5065848;28;20044;-74
2022/08/20 12:07:17;;;;;;;6.28;2.03;;;;;;;;;;5066629;28;20430;-71
2022/08/20 12:09:48;;;;;;;3.42;1.65;;;;;;;;;;5066231;28;20126;-72
2022/08/20 12:12:22;;;;;;;1.98;1.02;;;;;;;;;;5066003;28;20045;-74
2022/08/20 12:14:54;;;;;;;8.43;1.70;;;;;;;;;;5066024;28;20044;-72
2022/08/20 12:17:28;;;;;;;9.15;1.92;;;;;;;;;;5065633;28;20053;-72
2022/08/20 12:20:01;;;;;;;3.05;1.30;;;;;;;;;;5067414;28;20044;-73
2022/08/20 12:22:32;;;;;;;2.30;1.13;;;;;;;;;;5069468;28;20070;-73
2022/08/20 12:25:04;;;;;;;2.60;1.40;;;;;;;;;;5051739;28;20060;-75
2022/08/20 12:27:36;;;;;;;1.95;1.20;;;;;;;;;;5069629;28;20052;-74
2022/08/20 12:30:14;;;;;;;7.03;1.35;;;;;;;;;;5069447;28;20044;-74
2022/08/20 12:32:44;;;;;;;2.90;1.20;;;;;;;;;;5069120;28;20052;-73
2022/08/20 12:35:15;;;;;;;1.75;1.08;;;;;;;;;;5069316;28;20055;-74
2022/08/20 12:37:46;;;;;;;4.65;1.90;;;;;;;;;;5068422;28;20052;-72
2022/08/20 12:40:21;;;;;;;2.78;1.30;;;;;;;;;;5069418;28;20166;-72
2022/08/20 12:43:01;;;;;;;2.45;1.27;;;;;;;;;;5068489;28;20041;-72
2022/08/20 12:45:32;;;;;;;2.67;1.30;;;;;;;;;;5069009;28;20056;-72
2022/08/20 12:48:08;;;;;;;3.33;1.80;;;;;;;;;;5068522;28;20084;-74
2022/08/20 12:50:41;;;;;;;8.55;1.70;;;;;;;;;;5069106;28;20479;-74
2022/08/20 12:53:11;;;;;;;4.97;1.20;;;;;;;;;;5068803;28;20052;-74
2022/08/20 12:55:41;;;;;;;2.75;1.50;;;;;;;;;;5067938;28;20052;-76
2022/08/20 12:58:11;;;;;;;4.93;1.85;;;;;;;;;;5066651;28;20045;-74
2022/08/20 13:00:43;;;;;;;2.97;1.55;;;;;;;;;;5068376;28;20044;-73
2022/08/20 13:03:19;;;;;;;4.32;1.88;;;;;;;;;;5068157;28;20040;-77
2022/08/20 13:05:50;;;;;;;3.95;1.88;;;;;;;;;;5068011;28;20403;-74
2022/08/20 13:08:20;;;;;;;3.55;1.58;;;;;;;;;;5066142;28;20495;-75
2022/08/20 13:10:50;;;;;;;4.93;1.77;;;;;;;;;;5067951;28;20044;-74
2022/08/20 13:13:21;;;;;;;3.45;1.80;;;;;;;;;;5068594;28;20045;-74
2022/08/20 13:15:51;;;;;;;10.18;3.55;;;;;;;;;;5067352;28;20071;-75
2022/08/20 13:18:21;;;;;;;5.25;1.80;;;;;;;;;;5068207;28;20055;-74
2022/08/20 13:20:51;;;;;;;5.85;2.00;;;;;;;;;;5068267;28;20043;-74
2022/08/20 13:23:21;;;;;;;2.63;1.50;;;;;;;;;;5067425;28;20052;-75
2022/08/20 13:25:51;;;;;;;5.65;1.63;;;;;;;;;;5068301;28;20048;-75
2022/08/20 13:28:21;;;;;;;2.05;1.15;;;;;;;;;;5069166;28;20037;-75
2022/08/20 13:30:50;;;;;;;3.83;1.67;;;;;;;;;;5067759;28;20049;-74
2022/08/20 13:33:20;;;;;;;5.78;2.45;;;;;;;;;;5065516;28;20153;-75
2022/08/20 13:35:50;;;;;;;4.00;1.50;;;;;;;;;;5067353;28;20048;-75
2022/08/20 13:38:20;;;;;;;5.68;1.83;;;;;;;;;;5065855;28;20045;-73
2022/08/20 13:40:52;;;;;;;3.20;1.30;;;;;;;;;;5067124;28;20048;-74
2022/08/20 13:43:22;;;;;;;4.57;1.80;;;;;;;;;;5064391;28;20174;-75
2022/08/20 13:45:52;;;;;;;3.15;1.30;;;;;;;;;;5064814;28;20491;-75
2022/08/20 13:48:24;;;;;;;2.65;1.42;;;;;;;;;;5062507;28;20041;-74
2022/08/20 13:50:54;;;;;;;3.47;1.50;;;;;;;;;;5063717;28;20048;-73
2022/08/20 13:53:24;;;;;;;4.32;1.30;;;;;;;;;;5068160;28;20040;-73
2022/08/20 13:55:55;;;;;;;3.88;1.40;;;;;;;;;;5066396;28;20067;-73
2022/08/20 13:58:24;;;;;;;5.28;2.00;;;;;;;;;;5064530;28;20054;-73
2022/08/20 14:00:55;;;;;;;2.92;1.42;;;;;;;;;;5061989;28;20059;-74
2022/08/20 14:03:24;;;;;;;2.40;1.20;;;;;;;;;;5065184;28;20041;-74
2022/08/20 14:05:55;;;;;;;7.18;1.50;;;;;;;;;;5067492;28;20040;-74
2022/08/20 14:08:26;;;;;;;4.18;1.20;;;;;;;;;;5068215;28;20044;-74
2022/08/20 14:10:57;;;;;;;9.27;1.55;;;;;;;;;;5068944;28;20051;-74
2022/08/20 14:13:30;;;;;;;5.85;1.67;;;;;;;;;;5067107;28;20057;-74
2022/08/20 14:16:00;;;;;;;4.60;1.30;;;;;;;;;;5065782;28;20048;-74
2022/08/20 14:18:30;;;;;;;5.15;1.10;;;;;;;;;;5066540;28;20063;-74
2022/08/20 14:21:00;;;;;;;3.22;1.33;;;;;;;;;;5070307;28;20049;-74
2022/08/20 14:23:30;;;;;;;4.05;1.08;;;;;;;;;;5068755;28;20044;-74
2022/08/20 14:26:04;;;;;;;1.85;1.00;;;;;;;;;;5068272;28;20040;-74
2022/08/20 14:28:34;;;;;;;2.67;1.08;;;;;;;;;;5068229;28;20045;-73
2022/08/20 14:31:04;;;;;;;4.45;1.10;;;;;;;;;;5068548;28;20053;-74
2022/08/20 14:33:34;;;;;;;2.85;1.10;;;;;;;;;;5068135;28;20038;-75
2022/08/20 14:36:10;;;;;;;5.68;1.00;;;;;;;;;;5066320;28;20044;-74
2022/08/20 14:38:44;;;;;;;2.70;0.93;;;;;;;;;;5064767;28;20048;-75
2022/08/20 14:41:15;;;;;;;2.47;0.90;;;;;;;;;;5063233;28;20049;-74
2022/08/20 14:43:44;;;;;;;2.05;0.80;;;;;;;;;;5065079;28;20051;-73
2022/08/20 14:46:16;;;;;;;2.28;0.93;;;;;;;;;;5064094;28;20531;-73
2022/08/20 14:48:45;;;;;;;3.03;1.00;;;;;;;;;;5065762;28;20065;-74
2022/08/20 14:51:21;;;;;;;3.28;1.02;;;;;;;;;;5065113;28;20048;-74
2022/08/20 14:53:51;;;;;;;4.88;1.02;;;;;;;;;;5065310;28;20048;-75
2022/08/20 14:56:22;;;;;;;3.13;1.48;;;;;;;;;;5064893;28;20056;-73
2022/08/20 14:58:51;;;;;;;1.05;0.70;;;;;;;;;;5066066;28;20035;-75
2022/08/20 15:01:22;;;;;;;5.10;0.80;;;;;;;;;;5064896;28;20537;-75
2022/08/20 15:03:53;;;;;;;4.15;0.98;;;;;;;;;;5066673;28;20515;-74
2022/08/20 15:06:34;;;;;;;5.90;0.80;;;;;;;;;;5065312;28;20438;-75
2022/08/20 15:09:06;;;;;;;4.45;0.77;;;;;;;;;;5065556;28;20059;-73
2022/08/20 15:11:38;;;;;;;1.88;0.70;;;;;;;;;;5061894;28;20045;-75
2022/08/20 15:14:09;;;;;;;1.33;0.90;;;;;;;;;;5063526;28;20079;-74
2022/08/20 15:16:47;;;;;;;1.98;0.65;;;;;;;;;;5063875;28;20059;-75
2022/08/20 15:19:17;;;;;;;5.35;0.70;;;;;;;;;;5063902;28;20055;-77
2022/08/20 15:21:47;;;;;;;1.90;0.80;;;;;;;;;;5066730;28;20044;-78
2022/08/20 15:24:17;;;;;;;1.52;0.63;;;;;;;;;;5063430;28;20055;-73
2022/08/20 15:26:47;;;;;;;2.85;0.55;;;;;;;;;;5062502;28;20049;-74
2022/08/20 15:29:17;;;;;;;1.83;0.65;;;;;;;;;;5061695;28;20052;-73
2022/08/20 15:31:51;;;;;;;1.80;0.60;;;;;;;;;;5066067;28;20352;-74
2022/08/20 15:34:21;;;;;;;2.50;0.60;;;;;;;;;;5063537;28;20057;-74
2022/08/20 15:36:51;;;;;;;1.77;0.80;;;;;;;;;;5065787;28;20055;-73
2022/08/20 15:39:20;;;;;;;2.15;0.80;;;;;;;;;;5066338;28;20518;-74
2022/08/20 15:41:50;;;;;;;2.13;0.60;;;;;;;;;;5065832;28;20044;-73
2022/08/20 15:44:20;;;;;;;2.67;0.93;;;;;;;;;;5064504;28;20052;-74